createdAt,value
2022-09-23T00:01:13.562Z,73.60
2022-09-23T00:03:42.737Z,73.43
2022-09-23T00:06:12.405Z,73.61
2022-09-23T00:08:40.365Z,73.39
2022-09-23T00:11:15.887Z,73.61
2022-09-23T00:13:48.932Z,73.45
2022-09-23T00:16:28.471Z,73.60
2022-09-23T00:18:55.334Z,73.42
2022-09-23T00:21:25.314Z,73.31
2022-09-23T00:23:52.021Z,73.17
2022-09-23T00:26:21.619Z,73.27
2022-09-23T00:28:51.805Z,73.40
2022-09-23T00:31:24.268Z,73.18
2022-09-23T00:33:58.826Z,73.16
2022-09-23T00:36:26.519Z,73.22
2022-09-23T00:38:56.570Z,73.26
2022-09-23T00:41:23.713Z,73.51
2022-09-23T00:43:55.733Z,73.55
2022-09-23T00:46:38.041Z,73.50
2022-09-23T00:49:37.619Z,73.30
2022-09-23T00:52:13.096Z,73.20
2022-09-23T00:54:43.569Z,73.31
2022-09-23T00:57:13.286Z,73.35
2022-09-23T00:59:40.409Z,73.57
2022-09-23T01:02:07.570Z,73.51
2022-09-23T01:04:34.838Z,73.57
2022-09-23T01:07:01.444Z,73.59
2022-09-23T01:09:28.501Z,73.64
2022-09-23T01:12:12.909Z,73.61
2022-09-23T01:15:09.860Z,73.91
2022-09-23T01:18:11.394Z,73.80
2022-09-23T01:21:06.323Z,74.02
2022-09-23T01:23:54.594Z,73.95
2022-09-23T01:26:53.465Z,74.02
2022-09-23T01:29:47.313Z,73.90
2022-09-23T01:32:40.986Z,73.87
2022-09-23T01:35:26.315Z,74.04
2022-09-23T01:38:31.927Z,73.96
2022-09-23T01:41:14.200Z,73.90
2022-09-23T01:43:49.937Z,74.09
2022-09-23T01:46:31.430Z,74.25
2022-09-23T01:49:15.723Z,74.25
2022-09-23T01:51:48.914Z,74.15
2022-09-23T01:54:22.970Z,74.39
2022-09-23T01:57:01.392Z,74.35
2022-09-23T01:59:27.935Z,74.33
2022-09-23T02:02:01.836Z,74.48
2022-09-23T02:04:39.609Z,74.50
2022-09-23T02:07:29.475Z,74.59
2022-09-23T02:10:25.762Z,74.58
2022-09-23T02:12:58.052Z,74.74
2022-09-23T02:15:41.938Z,75.00
2022-09-23T02:18:16.846Z,74.92
2022-09-23T02:20:43.995Z,75.07
2022-09-23T02:23:21.013Z,74.99
2022-09-23T02:26:12.005Z,75.11
2022-09-23T02:29:16.869Z,75.26
2022-09-23T02:31:49.502Z,75.21
2022-09-23T02:34:33.984Z,75.33
2022-09-23T02:37:29.592Z,75.30
2022-09-23T02:40:00.245Z,75.39
2022-09-23T02:42:52.838Z,75.46
2022-09-23T02:45:19.767Z,75.46
2022-09-23T02:47:49.911Z,75.42
2022-09-23T02:50:19.177Z,75.26
2022-09-23T02:52:46.951Z,75.42
2022-09-23T02:55:17.258Z,75.37
2022-09-23T02:57:44.653Z,75.51
2022-09-23T03:00:12.453Z,75.71
2022-09-23T03:02:58.913Z,75.46
2022-09-23T03:05:32.169Z,75.63
2022-09-23T03:08:42.354Z,75.70
2022-09-23T03:11:13.079Z,75.82
2022-09-23T03:14:17.864Z,75.79
2022-09-23T03:17:06.984Z,75.92
2022-09-23T03:19:50.762Z,75.81
2022-09-23T03:22:35.604Z,75.96
2022-09-23T03:25:16.051Z,75.88
2022-09-23T03:27:44.141Z,76.05
2022-09-23T03:30:11.634Z,76.25
2022-09-23T03:32:39.499Z,75.96
2022-09-23T03:35:06.747Z,76.06
2022-09-23T03:37:54.070Z,76.13
2022-09-23T03:40:35.793Z,76.13
2022-09-23T03:43:04.532Z,75.96
2022-09-23T03:45:33.594Z,75.98
2022-09-23T03:48:00.733Z,75.99
2022-09-23T03:50:28.005Z,75.76
2022-09-23T03:52:54.659Z,75.81
2022-09-23T03:55:21.461Z,76.09
2022-09-23T03:57:48.755Z,76.35
2022-09-23T04:00:16.079Z,76.25
2022-09-23T04:02:43.056Z,75.96
2022-09-23T04:05:11.592Z,76.24
2022-09-23T04:07:38.579Z,76.23
2022-09-23T04:10:06.349Z,76.54
2022-09-23T04:12:33.013Z,76.34
2022-09-23T04:15:00.160Z,76.44
2022-09-23T04:17:26.830Z,76.58
2022-09-23T04:19:53.501Z,76.44
2022-09-23T04:22:20.145Z,76.62
2022-09-23T04:24:47.011Z,76.66
2022-09-23T04:27:13.658Z,76.74
2022-09-23T04:29:40.279Z,76.75
2022-09-23T04:32:06.862Z,76.79
2022-09-23T04:34:33.537Z,76.88
2022-09-23T04:37:00.142Z,76.83
2022-09-23T04:39:26.883Z,77.06
2022-09-23T04:41:53.487Z,76.72
2022-09-23T04:44:21.322Z,77.13
2022-09-23T04:46:48.395Z,76.96
2022-09-23T04:49:16.465Z,77.16
2022-09-23T04:51:43.760Z,77.17
2022-09-23T04:54:12.239Z,77.19
2022-09-23T04:56:39.911Z,77.24
2022-09-23T04:59:07.586Z,77.17
2022-09-23T05:01:36.359Z,77.47
2022-09-23T05:04:06.856Z,77.54
2022-09-23T05:06:35.004Z,77.35
2022-09-23T05:09:02.842Z,77.51
2022-09-23T05:11:31.384Z,77.76
2022-09-23T05:13:58.590Z,77.71
2022-09-23T05:16:26.220Z,77.76
2022-09-23T05:18:53.329Z,77.78
2022-09-23T05:21:22.791Z,77.91
2022-09-23T05:23:54.237Z,77.70
2022-09-23T05:26:25.834Z,77.87
2022-09-23T05:28:54.020Z,77.80
2022-09-23T05:31:26.399Z,77.98
2022-09-23T05:33:57.466Z,77.92
2022-09-23T05:36:26.250Z,77.85
2022-09-23T05:38:52.985Z,77.92
2022-09-23T05:41:23.247Z,77.74
2022-09-23T05:43:51.838Z,77.79
2022-09-23T05:46:30.028Z,78.00
2022-09-23T05:49:01.771Z,77.85
2022-09-23T05:51:31.162Z,77.74
2022-09-23T05:53:58.997Z,77.40
2022-09-23T05:56:27.902Z,77.37
2022-09-23T05:58:57.200Z,77.52
2022-09-23T06:01:27.709Z,77.61
2022-09-23T06:03:56.322Z,77.39
2022-09-23T06:06:31.886Z,77.49
2022-09-23T06:08:59.547Z,77.30
2022-09-23T06:11:26.891Z,77.23
2022-09-23T06:14:05.885Z,77.40
2022-09-23T06:16:37.919Z,77.40
2022-09-23T06:19:07.461Z,77.40
2022-09-23T06:21:36.115Z,77.43
2022-09-23T06:24:03.338Z,77.04
2022-09-23T06:26:33.646Z,77.42
2022-09-23T06:29:08.784Z,77.33
2022-09-23T06:31:35.927Z,77.31
2022-09-23T06:34:11.564Z,77.17
2022-09-23T06:36:44.356Z,77.22
2022-09-23T06:39:12.956Z,77.37
2022-09-23T06:41:39.850Z,77.08
2022-09-23T06:44:06.597Z,77.18
2022-09-23T06:46:33.583Z,76.96
2022-09-23T06:49:02.126Z,77.06
2022-09-23T06:51:28.712Z,77.16
2022-09-23T06:53:57.627Z,77.28
2022-09-23T06:56:24.770Z,77.37
2022-09-23T06:58:55.805Z,77.28
2022-09-23T07:01:23.304Z,77.45
2022-09-23T07:03:52.830Z,77.04
2022-09-23T07:06:19.994Z,77.05
2022-09-23T07:08:51.352Z,77.03
2022-09-23T07:11:22.414Z,76.85
2022-09-23T07:13:49.188Z,76.68
2022-09-23T07:16:18.816Z,76.88
2022-09-23T07:18:45.817Z,76.71
2022-09-23T07:21:24.159Z,77.11
2022-09-23T07:23:51.904Z,76.92
2022-09-23T07:26:22.932Z,76.98
2022-09-23T07:28:54.698Z,76.93
2022-09-23T07:31:33.452Z,76.63
2022-09-23T07:34:06.594Z,76.61
2022-09-23T07:36:33.308Z,76.70
2022-09-23T07:39:03.842Z,76.71
2022-09-23T07:41:32.230Z,76.63
2022-09-23T07:44:00.750Z,76.86
2022-09-23T07:46:33.086Z,76.73
2022-09-23T07:48:59.871Z,76.34
2022-09-23T07:51:35.526Z,76.54
2022-09-23T07:54:05.419Z,76.23
2022-09-23T07:56:32.091Z,76.61
2022-09-23T07:59:05.810Z,76.66
2022-09-23T08:01:44.709Z,76.51
2022-09-23T08:04:17.978Z,76.56
2022-09-23T08:06:51.360Z,76.15
2022-09-23T08:09:20.034Z,76.29
2022-09-23T08:11:46.928Z,76.30
2022-09-23T08:14:15.485Z,76.03
2022-09-23T08:16:42.563Z,75.97
2022-09-23T08:19:09.538Z,75.99
2022-09-23T08:21:37.651Z,76.08
2022-09-23T08:24:04.348Z,76.20
2022-09-23T08:26:32.637Z,75.95
2022-09-23T08:28:59.240Z,75.79
2022-09-23T08:31:26.066Z,75.66
2022-09-23T08:33:57.753Z,75.58
2022-09-23T08:36:25.448Z,75.91
2022-09-23T08:38:52.602Z,75.67
2022-09-23T08:41:47.757Z,75.41
2022-09-23T08:44:23.067Z,75.41
2022-09-23T08:47:04.938Z,75.31
2022-09-23T08:49:38.742Z,75.42
2022-09-23T08:52:29.536Z,75.25
2022-09-23T08:54:56.451Z,75.56
2022-09-23T08:57:32.707Z,75.07
2022-09-23T09:00:01.825Z,75.15
2022-09-23T09:02:29.680Z,75.16
2022-09-23T09:05:03.579Z,74.93
2022-09-23T09:07:37.445Z,75.00
2022-09-23T09:10:19.444Z,74.62
2022-09-23T09:12:49.886Z,74.65
2022-09-23T09:15:27.583Z,74.41
2022-09-23T09:18:04.429Z,74.29
2022-09-23T09:20:57.188Z,74.26
2022-09-23T09:23:49.106Z,74.06
2022-09-23T09:26:36.001Z,74.17
2022-09-23T09:29:34.414Z,73.91
2022-09-23T09:32:25.570Z,73.54
2022-09-23T09:35:05.326Z,73.35
2022-09-23T09:37:40.467Z,73.61
2022-09-23T09:40:12.250Z,73.28
2022-09-23T09:42:50.315Z,73.21
2022-09-23T09:45:28.385Z,73.03
2022-09-23T09:48:01.816Z,72.91
2022-09-23T09:51:18.836Z,72.93
2022-09-23T09:53:45.469Z,72.77
2022-09-23T09:56:16.486Z,72.61
2022-09-23T09:58:56.818Z,72.62
2022-09-23T10:01:27.443Z,72.47
2022-09-23T10:03:59.141Z,72.33
2022-09-23T10:06:29.060Z,72.08
2022-09-23T10:09:01.922Z,71.86
2022-09-23T10:11:32.574Z,71.79
2022-09-23T10:14:11.202Z,71.64
2022-09-23T10:16:38.086Z,71.57
2022-09-23T10:19:13.963Z,71.38
2022-09-23T10:21:42.911Z,71.15
2022-09-23T10:24:22.711Z,70.70
2022-09-23T10:26:58.134Z,70.95
2022-09-23T10:29:53.315Z,70.90
2022-09-23T10:32:27.764Z,70.72
2022-09-23T10:34:57.623Z,70.53
2022-09-23T10:37:32.884Z,70.20
2022-09-23T10:40:19.557Z,69.89
2022-09-23T10:43:45.810Z,69.74
2022-09-23T10:46:39.817Z,69.73
2022-09-23T10:49:27.708Z,69.33
2022-09-23T10:52:16.159Z,68.10
2022-09-23T10:55:08.597Z,67.82
2022-09-23T10:57:59.036Z,67.74
2022-09-23T11:00:57.923Z,66.97
2022-09-23T11:03:58.536Z,66.75
2022-09-23T11:06:43.112Z,66.33
2022-09-23T11:09:15.615Z,65.65
2022-09-23T11:12:11.022Z,65.29
2022-09-23T11:14:46.297Z,64.74
2022-09-23T11:17:33.073Z,64.61
2022-09-23T11:20:23.877Z,64.04
2022-09-23T11:22:59.237Z,63.59
2022-09-23T11:25:47.259Z,63.53
2022-09-23T11:28:20.037Z,63.30
2022-09-23T11:30:46.613Z,62.87
2022-09-23T11:33:46.639Z,62.36
2022-09-23T11:36:28.365Z,62.14
2022-09-23T11:39:00.954Z,61.60
2022-09-23T11:41:30.600Z,60.93
2022-09-23T11:44:21.223Z,60.83
2022-09-23T11:46:55.811Z,60.62
2022-09-23T11:49:43.246Z,60.53
2022-09-23T11:52:19.564Z,60.41
2022-09-23T11:54:51.914Z,60.47
2022-09-23T11:57:49.582Z,60.28
2022-09-23T12:00:30.203Z,60.18
2022-09-23T12:03:44.365Z,59.87
2022-09-23T12:06:19.155Z,59.64
2022-09-23T12:08:45.806Z,59.28
2022-09-23T12:11:15.572Z,58.95
2022-09-23T12:13:45.072Z,58.92
2022-09-23T12:16:37.567Z,58.72
2022-09-23T12:19:28.734Z,58.56
2022-09-23T12:22:25.661Z,58.54
2022-09-23T12:25:07.664Z,58.48
2022-09-23T12:27:45.605Z,58.60
2022-09-23T12:30:25.045Z,58.10
2022-09-23T12:32:51.888Z,58.30
2022-09-23T12:35:32.215Z,57.63
2022-09-23T12:38:01.440Z,57.41
2022-09-23T12:40:43.968Z,57.56
2022-09-23T12:44:18.065Z,57.63
2022-09-23T12:46:45.904Z,57.74
2022-09-23T12:49:28.830Z,57.33
2022-09-23T12:52:25.471Z,57.28
2022-09-23T12:54:56.496Z,57.37
2022-09-23T12:57:34.973Z,57.01
2022-09-23T13:00:13.025Z,57.01
2022-09-23T13:03:07.567Z,56.65
2022-09-23T13:06:03.666Z,56.78
2022-09-23T13:08:31.051Z,56.74
2022-09-23T13:11:02.991Z,56.52
2022-09-23T13:13:42.850Z,56.09
2022-09-23T13:16:26.456Z,55.94
2022-09-23T13:19:26.311Z,55.67
2022-09-23T13:22:09.446Z,55.51
2022-09-23T13:24:40.598Z,55.47
2022-09-23T13:27:43.386Z,55.05
2022-09-23T13:30:16.445Z,55.01
2022-09-23T13:33:16.460Z,55.13
2022-09-23T13:35:51.530Z,55.60
2022-09-23T13:38:26.118Z,55.30
2022-09-23T13:41:01.951Z,55.08
2022-09-23T13:43:32.479Z,55.06
2022-09-23T13:46:01.069Z,55.11
2022-09-23T13:48:28.831Z,55.32
2022-09-23T13:50:56.147Z,55.68
2022-09-23T13:53:28.139Z,55.85
2022-09-23T13:56:13.211Z,55.48
2022-09-23T13:58:40.473Z,55.84
2022-09-23T14:01:22.333Z,55.85
2022-09-23T14:03:49.116Z,55.89
2022-09-23T14:06:16.691Z,55.54
2022-09-23T14:08:48.327Z,56.08
2022-09-23T14:11:20.897Z,56.08
2022-09-23T14:13:51.062Z,55.39
2022-09-23T14:16:19.603Z,55.83
2022-09-23T14:18:49.626Z,55.69
2022-09-23T14:21:34.765Z,55.58
2022-09-23T14:24:25.165Z,55.63
2022-09-23T14:27:11.947Z,55.79
2022-09-23T14:29:41.358Z,55.81
2022-09-23T14:32:18.706Z,56.15
2022-09-23T14:34:53.035Z,56.11
2022-09-23T14:37:41.088Z,55.74
2022-09-23T14:40:32.066Z,55.60
2022-09-23T14:43:15.852Z,55.43
2022-09-23T14:45:50.519Z,55.39
2022-09-23T14:48:23.019Z,55.46
2022-09-23T14:50:52.759Z,55.44
2022-09-23T14:53:19.486Z,55.36
2022-09-23T14:55:52.916Z,55.63
2022-09-23T14:58:22.951Z,55.19
2022-09-23T15:01:00.723Z,55.19
2022-09-23T15:03:28.633Z,54.92
2022-09-23T15:06:08.777Z,54.75
2022-09-23T15:08:36.029Z,54.73
2022-09-23T15:11:08.074Z,54.54
2022-09-23T15:13:40.083Z,54.60
2022-09-23T15:16:07.479Z,54.38
2022-09-23T15:18:37.245Z,54.39
2022-09-23T15:21:16.206Z,54.30
2022-09-23T15:23:48.717Z,54.25
2022-09-23T15:26:38.185Z,54.20
2022-09-23T15:29:09.699Z,54.19
2022-09-23T15:31:37.381Z,54.31
2022-09-23T15:34:05.658Z,54.38
2022-09-23T15:36:32.757Z,54.51
2022-09-23T15:39:06.164Z,54.31
2022-09-23T15:41:35.776Z,54.40
2022-09-23T15:44:13.317Z,54.53
2022-09-23T15:46:46.029Z,54.45
2022-09-23T15:49:36.289Z,54.62
2022-09-23T15:52:05.114Z,54.63
2022-09-23T15:54:34.765Z,54.84
2022-09-23T15:57:01.457Z,54.98
2022-09-23T15:59:31.100Z,55.27
2022-09-23T16:02:03.273Z,55.47
2022-09-23T16:04:31.425Z,55.43
2022-09-23T16:06:59.135Z,55.67
2022-09-23T16:09:28.298Z,55.83
2022-09-23T16:11:55.094Z,56.41
2022-09-23T16:14:21.755Z,56.29
2022-09-23T16:16:49.621Z,56.46
2022-09-23T16:19:17.733Z,56.71
2022-09-23T16:21:44.861Z,57.11
2022-09-23T16:24:17.147Z,57.34
2022-09-23T16:26:46.603Z,57.44
2022-09-23T16:29:13.786Z,57.70
2022-09-23T16:31:40.786Z,58.02
2022-09-23T16:34:07.478Z,58.23
2022-09-23T16:36:43.383Z,58.48
2022-09-23T16:39:12.819Z,58.63
2022-09-23T16:41:40.341Z,59.01
2022-09-23T16:44:09.371Z,59.28
2022-09-23T16:46:36.566Z,59.05
2022-09-23T16:49:03.630Z,59.42
2022-09-23T16:51:38.997Z,59.88
2022-09-23T16:54:11.769Z,60.02
2022-09-23T16:56:45.315Z,60.34
2022-09-23T16:59:13.203Z,60.59
2022-09-23T17:01:58.772Z,60.72
2022-09-23T17:04:25.611Z,60.67
2022-09-23T17:06:53.185Z,61.19
2022-09-23T17:09:28.416Z,61.37
2022-09-23T17:12:25.978Z,61.73
2022-09-23T17:14:53.117Z,61.46
2022-09-23T17:17:19.845Z,62.22
2022-09-23T17:19:47.296Z,62.21
2022-09-23T17:22:14.343Z,62.32
2022-09-23T17:24:41.449Z,62.82
2022-09-23T17:27:08.063Z,63.05
2022-09-23T17:29:34.677Z,63.20
2022-09-23T17:32:01.595Z,63.63
2022-09-23T17:34:28.984Z,63.57
2022-09-23T17:36:55.733Z,64.05
2022-09-23T17:39:22.367Z,64.30
2022-09-23T17:41:49.243Z,64.13
2022-09-23T17:44:17.632Z,64.75
2022-09-23T17:46:44.276Z,64.82
2022-09-23T17:49:11.375Z,64.83
2022-09-23T17:51:37.967Z,64.91
2022-09-23T17:54:04.678Z,65.18
2022-09-23T17:56:31.477Z,65.48
2022-09-23T17:59:01.871Z,65.52
2022-09-23T18:01:29.418Z,65.88
2022-09-23T18:03:58.228Z,66.26
2022-09-23T18:06:27.698Z,65.82
2022-09-23T18:08:55.980Z,66.29
2022-09-23T18:11:27.850Z,66.32
2022-09-23T18:13:59.995Z,66.27
2022-09-23T18:16:35.064Z,66.62
2022-09-23T18:19:03.785Z,66.43
2022-09-23T18:21:33.515Z,66.63
2022-09-23T18:24:21.732Z,66.88
2022-09-23T18:26:49.426Z,66.90
2022-09-23T18:29:16.742Z,66.87
2022-09-23T18:31:45.184Z,67.32
2022-09-23T18:34:14.115Z,67.53
2022-09-23T18:36:41.048Z,67.63
2022-09-23T18:39:07.957Z,67.54
2022-09-23T18:41:35.554Z,67.68
2022-09-23T18:44:02.575Z,67.85
2022-09-23T18:46:30.310Z,67.93
2022-09-23T18:49:16.567Z,68.16
2022-09-23T18:51:52.521Z,68.09
2022-09-23T18:54:19.822Z,68.24
2022-09-23T18:56:46.826Z,68.26
2022-09-23T18:59:19.618Z,68.68
2022-09-23T19:01:50.112Z,68.71
2022-09-23T19:04:19.294Z,68.55
2022-09-23T19:06:46.502Z,68.57
2022-09-23T19:09:14.849Z,69.01
2022-09-23T19:11:41.752Z,69.08
2022-09-23T19:14:11.354Z,69.09
2022-09-23T19:16:39.539Z,69.06
2022-09-23T19:19:06.650Z,69.04
2022-09-23T19:21:33.510Z,69.19
2022-09-23T19:24:05.790Z,69.20
2022-09-23T19:26:36.095Z,69.29
2022-09-23T19:29:04.377Z,69.14
2022-09-23T19:31:33.903Z,69.87
2022-09-23T19:34:29.380Z,69.78
2022-09-23T19:36:57.466Z,69.98
2022-09-23T19:39:26.974Z,70.03
2022-09-23T19:41:56.062Z,70.13
2022-09-23T19:44:25.148Z,70.19
2022-09-23T19:46:56.313Z,70.37
2022-09-23T19:49:25.126Z,70.33
2022-09-23T19:51:56.051Z,70.62
2022-09-23T19:54:26.097Z,70.91
2022-09-23T19:56:52.740Z,70.97
2022-09-23T19:59:19.845Z,71.13
2022-09-23T20:01:48.260Z,71.03
2022-09-23T20:04:16.006Z,71.08
2022-09-23T20:06:43.286Z,71.28
2022-09-23T20:09:10.025Z,71.37
2022-09-23T20:11:36.901Z,71.27
2022-09-23T20:14:06.289Z,71.62
2022-09-23T20:16:36.868Z,71.45
2022-09-23T20:19:04.375Z,71.38
2022-09-23T20:21:31.532Z,71.88
2022-09-23T20:23:58.350Z,71.60
2022-09-23T20:26:43.468Z,71.90
2022-09-23T20:29:11.098Z,71.94
2022-09-23T20:31:41.489Z,71.99
2022-09-23T20:34:10.502Z,72.20
2022-09-23T20:36:37.828Z,72.19
2022-09-23T20:39:08.020Z,72.23
2022-09-23T20:41:37.587Z,72.71
2022-09-23T20:44:12.421Z,72.99
2022-09-23T20:46:48.225Z,72.89
2022-09-23T20:49:19.640Z,72.99
2022-09-23T20:51:50.512Z,72.97
2022-09-23T20:54:20.332Z,72.90
2022-09-23T20:56:47.663Z,72.64
2022-09-23T20:59:15.082Z,72.92
2022-09-23T21:01:41.877Z,72.98
2022-09-23T21:04:09.791Z,73.43
2022-09-23T21:06:37.597Z,73.54
2022-09-23T21:09:07.602Z,73.57
2022-09-23T21:11:34.355Z,73.53
2022-09-23T21:14:01.547Z,73.53
2022-09-23T21:16:28.661Z,73.40
2022-09-23T21:18:55.407Z,73.39
2022-09-23T21:21:22.543Z,73.36
2022-09-23T21:23:52.648Z,73.49
2022-09-23T21:26:24.742Z,73.46
2022-09-23T21:28:55.159Z,73.64
2022-09-23T21:31:25.585Z,73.85
2022-09-23T21:33:59.095Z,73.86
2022-09-23T21:36:28.254Z,73.79
2022-09-23T21:38:58.263Z,73.79
2022-09-23T21:41:25.391Z,73.67
2022-09-23T21:43:52.059Z,73.96
2022-09-23T21:46:20.666Z,73.86
2022-09-23T21:48:53.012Z,73.91
2022-09-23T21:51:25.729Z,74.08
2022-09-23T21:53:54.892Z,74.09
2022-09-23T21:56:22.866Z,73.89
2022-09-23T21:58:49.935Z,73.90
2022-09-23T22:01:22.677Z,73.89
2022-09-23T22:03:54.514Z,73.95
2022-09-23T22:06:23.671Z,74.00
2022-09-23T22:08:53.531Z,74.04
2022-09-23T22:11:41.190Z,74.05
2022-09-23T22:14:11.790Z,74.06
2022-09-23T22:16:42.552Z,73.95
2022-09-23T22:19:13.055Z,74.22
2022-09-23T22:21:41.734Z,74.19
2022-09-23T22:24:12.735Z,74.45
2022-09-23T22:26:45.747Z,74.35
2022-09-23T22:29:33.262Z,74.49
2022-09-23T22:32:20.343Z,74.70
2022-09-23T22:34:52.352Z,74.70
2022-09-23T22:37:28.289Z,74.71
2022-09-23T22:39:55.052Z,74.51
2022-09-23T22:42:22.441Z,74.73
2022-09-23T22:44:50.112Z,74.80
2022-09-23T22:47:20.496Z,74.96
2022-09-23T22:49:50.570Z,74.77
2022-09-23T22:52:23.691Z,75.00
2022-09-23T22:54:54.372Z,75.15
2022-09-23T22:57:20.973Z,75.03
2022-09-23T22:59:48.500Z,74.95
2022-09-23T23:02:20.843Z,75.33
2022-09-23T23:04:48.228Z,75.25
2022-09-23T23:07:23.458Z,75.32
2022-09-23T23:09:50.824Z,75.22
2022-09-23T23:12:20.960Z,75.51
2022-09-23T23:14:49.078Z,75.19
2022-09-23T23:17:19.264Z,75.59
2022-09-23T23:19:46.078Z,75.82
2022-09-23T23:22:12.816Z,76.10
2022-09-23T23:24:41.892Z,76.20
2022-09-23T23:27:08.470Z,75.94
2022-09-23T23:29:37.628Z,76.10
2022-09-23T23:32:05.203Z,76.24
2022-09-23T23:34:31.967Z,76.14
2022-09-23T23:36:58.619Z,76.07
2022-09-23T23:39:25.716Z,76.15
2022-09-23T23:41:57.068Z,76.10
2022-09-23T23:44:26.198Z,76.44
2022-09-23T23:46:54.264Z,76.17
2022-09-23T23:49:21.628Z,76.28
2022-09-23T23:51:51.026Z,76.00
2022-09-23T23:54:17.613Z,76.04
2022-09-23T23:56:44.321Z,76.27
2022-09-23T23:59:11.355Z,76.39
